sensor_id;sensor_type;location;lat;lon;timestamp;pressure;altitude;pressure_sealevel;temperature;humidity
71559;BME280;59382;43.852;25.952;2023-08-24T00:00:53;101013.78;;;31.77;40.92
71559;BME280;59382;43.852;25.952;2023-08-24T00:03:19;101004.91;;;31.75;40.67
71559;BME280;59382;43.852;25.952;2023-08-24T00:05:47;101009.56;;;31.71;40.44
71559;BME280;59382;43.852;25.952;2023-08-24T00:08:13;101005.66;;;31.72;40.79
71559;BME280;59382;43.852;25.952;2023-08-24T00:10:38;101001.44;;;31.66;40.50
71559;BME280;59382;43.852;25.952;2023-08-24T00:13:04;101018.06;;;31.75;40.33
71559;BME280;59382;43.852;25.952;2023-08-24T00:15:30;101021.91;;;31.70;40.87
71559;BME280;59382;43.852;25.952;2023-08-24T00:17:56;101027.69;;;31.65;41.05
71559;BME280;59382;43.852;25.952;2023-08-24T00:20:21;101020.69;;;31.59;41.62
71559;BME280;59382;43.852;25.952;2023-08-24T00:22:49;101018.59;;;31.56;41.53
71559;BME280;59382;43.852;25.952;2023-08-24T00:25:14;101022.81;;;31.62;40.77
71559;BME280;59382;43.852;25.952;2023-08-24T00:27:40;101028.38;;;31.62;40.96
71559;BME280;59382;43.852;25.952;2023-08-24T00:30:07;101026.63;;;31.58;40.73
71559;BME280;59382;43.852;25.952;2023-08-24T00:32:33;101033.28;;;31.65;40.23
71559;BME280;59382;43.852;25.952;2023-08-24T00:35:04;101010.56;;;31.55;40.14
71559;BME280;59382;43.852;25.952;2023-08-24T00:37:31;101030.81;;;31.64;40.18
71559;BME280;59382;43.852;25.952;2023-08-24T00:39:59;101038.41;;;31.63;40.23
71559;BME280;59382;43.852;25.952;2023-08-24T00:42:25;101042.13;;;31.67;40.38
71559;BME280;59382;43.852;25.952;2023-08-24T00:44:51;101057.94;;;31.63;40.74
71559;BME280;59382;43.852;25.952;2023-08-24T00:47:17;101042.44;;;31.54;40.87
71559;BME280;59382;43.852;25.952;2023-08-24T00:49:43;101037.28;;;31.44;40.95
71559;BME280;59382;43.852;25.952;2023-08-24T00:52:09;101041.69;;;31.45;41.47
71559;BME280;59382;43.852;25.952;2023-08-24T00:54:37;101039.44;;;31.38;40.75
71559;BME280;59382;43.852;25.952;2023-08-24T00:57:05;101030.63;;;31.36;41.01
71559;BME280;59382;43.852;25.952;2023-08-24T00:59:31;100997.03;;;31.12;40.67
71559;BME280;59382;43.852;25.952;2023-08-24T01:01:58;101032.94;;;31.34;40.78
71559;BME280;59382;43.852;25.952;2023-08-24T01:04:24;101045.25;;;31.33;40.75
71559;BME280;59382;43.852;25.952;2023-08-24T01:06:50;101041.00;;;31.27;40.91
71559;BME280;59382;43.852;25.952;2023-08-24T01:09:16;101040.53;;;31.25;40.89
71559;BME280;59382;43.852;25.952;2023-08-24T01:17:01;101035.50;;;31.19;41.44
71559;BME280;59382;43.852;25.952;2023-08-24T01:19:41;101051.16;;;31.11;42.54
71559;BME280;59382;43.852;25.952;2023-08-24T01:24:47;101044.94;;;30.85;43.56
71559;BME280;59382;43.852;25.952;2023-08-24T01:27:17;101042.84;;;30.82;43.58
71559;BME280;59382;43.852;25.952;2023-08-24T01:29:43;101041.88;;;30.78;43.64
71559;BME280;59382;43.852;25.952;2023-08-24T01:32:11;101044.69;;;30.78;44.02
71559;BME280;59382;43.852;25.952;2023-08-24T01:34:38;101040.28;;;30.77;44.44
71559;BME280;59382;43.852;25.952;2023-08-24T01:37:06;101029.28;;;30.72;44.23
71559;BME280;59382;43.852;25.952;2023-08-24T01:39:43;101026.78;;;30.79;44.43
71559;BME280;59382;43.852;25.952;2023-08-24T01:42:17;101035.63;;;30.81;44.77
71559;BME280;59382;43.852;25.952;2023-08-24T01:44:47;101018.66;;;30.74;44.56
71559;BME280;59382;43.852;25.952;2023-08-24T01:47:13;101011.28;;;30.70;44.50
71559;BME280;59382;43.852;25.952;2023-08-24T01:49:40;101014.25;;;30.65;45.28
71559;BME280;59382;43.852;25.952;2023-08-24T01:52:08;101012.28;;;30.65;44.97
71559;BME280;59382;43.852;25.952;2023-08-24T01:54:35;101021.75;;;30.73;45.12
71559;BME280;59382;43.852;25.952;2023-08-24T01:57:00;101017.66;;;30.70;45.01
71559;BME280;59382;43.852;25.952;2023-08-24T01:59:26;101017.53;;;30.67;44.89
71559;BME280;59382;43.852;25.952;2023-08-24T02:01:51;101006.91;;;30.60;44.12
71559;BME280;59382;43.852;25.952;2023-08-24T02:04:17;101001.66;;;30.59;43.74
71559;BME280;59382;43.852;25.952;2023-08-24T02:06:42;100997.38;;;30.61;43.68
71559;BME280;59382;43.852;25.952;2023-08-24T02:09:08;100996.63;;;30.52;42.84
71559;BME280;59382;43.852;25.952;2023-08-24T02:11:33;100998.06;;;30.58;42.93
71559;BME280;59382;43.852;25.952;2023-08-24T02:13:59;101002.97;;;30.61;42.81
71559;BME280;59382;43.852;25.952;2023-08-24T02:16:24;101016.44;;;30.59;42.70
71559;BME280;59382;43.852;25.952;2023-08-24T02:18:50;101013.50;;;30.56;42.40
71559;BME280;59382;43.852;25.952;2023-08-24T02:21:16;101024.44;;;30.61;42.49
71559;BME280;59382;43.852;25.952;2023-08-24T02:23:41;101018.88;;;30.61;42.10
71559;BME280;59382;43.852;25.952;2023-08-24T02:26:07;101011.03;;;30.54;42.20
71559;BME280;59382;43.852;25.952;2023-08-24T02:28:34;101014.16;;;30.53;42.24
71559;BME280;59382;43.852;25.952;2023-08-24T02:31:01;101026.13;;;30.53;42.13
71559;BME280;59382;43.852;25.952;2023-08-24T02:33:27;101011.09;;;30.46;41.97
71559;BME280;59382;43.852;25.952;2023-08-24T02:35:52;101005.72;;;30.40;42.01
71559;BME280;59382;43.852;25.952;2023-08-24T02:38:18;100993.13;;;30.34;41.99
71559;BME280;59382;43.852;25.952;2023-08-24T02:40:43;101011.78;;;30.42;41.72
71559;BME280;59382;43.852;25.952;2023-08-24T02:43:09;101015.00;;;30.44;42.04
71559;BME280;59382;43.852;25.952;2023-08-24T02:45:35;101025.34;;;30.44;41.47
71559;BME280;59382;43.852;25.952;2023-08-24T02:48:00;101019.78;;;30.44;41.98
71559;BME280;59382;43.852;25.952;2023-08-24T02:50:26;101019.78;;;30.44;41.80
71559;BME280;59382;43.852;25.952;2023-08-24T02:52:51;101016.03;;;30.40;41.88
71559;BME280;59382;43.852;25.952;2023-08-24T02:55:17;101001.97;;;30.36;41.72
71559;BME280;59382;43.852;25.952;2023-08-24T02:57:46;101015.69;;;30.41;41.87
71559;BME280;59382;43.852;25.952;2023-08-24T03:00:12;101016.03;;;30.40;42.27
71559;BME280;59382;43.852;25.952;2023-08-24T03:02:38;101032.28;;;30.38;42.07
71559;BME280;59382;43.852;25.952;2023-08-24T03:05:04;101040.97;;;30.36;42.33
71559;BME280;59382;43.852;25.952;2023-08-24T03:07:30;101043.25;;;30.34;41.95
71559;BME280;59382;43.852;25.952;2023-08-24T03:09:55;101027.09;;;30.28;42.20
71559;BME280;59382;43.852;25.952;2023-08-24T03:12:21;101039.63;;;30.34;42.10
71559;BME280;59382;43.852;25.952;2023-08-24T03:14:47;101017.97;;;30.19;41.92
71559;BME280;59382;43.852;25.952;2023-08-24T03:17:12;101045.91;;;30.31;42.26
71559;BME280;59382;43.852;25.952;2023-08-24T03:19:38;101042.13;;;30.27;42.55
71559;BME280;59382;43.852;25.952;2023-08-24T03:22:03;101041.00;;;30.28;42.79
71559;BME280;59382;43.852;25.952;2023-08-24T03:24:29;101036.13;;;30.25;42.48
71559;BME280;59382;43.852;25.952;2023-08-24T03:26:55;101039.69;;;30.25;42.35
71559;BME280;59382;43.852;25.952;2023-08-24T03:29:21;101040.53;;;30.26;42.71
71559;BME280;59382;43.852;25.952;2023-08-24T03:31:46;101034.97;;;30.17;42.56
71559;BME280;59382;43.852;25.952;2023-08-24T03:34:12;101042.00;;;30.15;42.73
71559;BME280;59382;43.852;25.952;2023-08-24T03:36:38;101030.06;;;30.06;42.82
71559;BME280;59382;43.852;25.952;2023-08-24T03:39:03;101027.19;;;29.94;42.67
71559;BME280;59382;43.852;25.952;2023-08-24T03:41:29;101025.25;;;29.86;42.61
71559;BME280;59382;43.852;25.952;2023-08-24T03:43:54;101051.88;;;29.95;42.67
71559;BME280;59382;43.852;25.952;2023-08-24T03:46:24;101049.47;;;29.85;42.11
71559;BME280;59382;43.852;25.952;2023-08-24T03:48:49;101057.69;;;29.82;42.51
71559;BME280;59382;43.852;25.952;2023-08-24T03:51:15;101061.59;;;29.81;42.23
71559;BME280;59382;43.852;25.952;2023-08-24T03:53:40;101029.38;;;29.54;42.34
71559;BME280;59382;43.852;25.952;2023-08-24T03:56:06;101062.59;;;29.68;42.63
71559;BME280;59382;43.852;25.952;2023-08-24T03:58:32;101052.81;;;29.62;42.78
71559;BME280;59382;43.852;25.952;2023-08-24T04:00:57;101067.66;;;29.66;42.57
71559;BME280;59382;43.852;25.952;2023-08-24T04:03:23;101076.66;;;29.63;42.57
71559;BME280;59382;43.852;25.952;2023-08-24T04:05:48;101055.41;;;29.50;42.92
71559;BME280;59382;43.852;25.952;2023-08-24T04:08:14;101058.50;;;29.57;43.07
71559;BME280;59382;43.852;25.952;2023-08-24T04:10:39;101054.75;;;29.53;42.85
71559;BME280;59382;43.852;25.952;2023-08-24T04:13:05;101052.63;;;29.50;42.85
71559;BME280;59382;43.852;25.952;2023-08-24T04:15:30;101058.34;;;29.53;43.17
71559;BME280;59382;43.852;25.952;2023-08-24T04:17:56;101059.50;;;29.44;43.19
71559;BME280;59382;43.852;25.952;2023-08-24T04:20:22;101069.97;;;29.47;43.27
71559;BME280;59382;43.852;25.952;2023-08-24T04:22:47;101049.22;;;29.36;43.41
71559;BME280;59382;43.852;25.952;2023-08-24T04:25:13;101077.47;;;29.46;43.37
71559;BME280;59382;43.852;25.952;2023-08-24T04:27:38;101086.00;;;29.50;43.59
71559;BME280;59382;43.852;25.952;2023-08-24T04:30:04;101077.66;;;29.50;43.72
71559;BME280;59382;43.852;25.952;2023-08-24T04:32:31;101061.31;;;29.40;43.49
71559;BME280;59382;43.852;25.952;2023-08-24T04:34:57;101081.59;;;29.49;43.53
71559;BME280;59382;43.852;25.952;2023-08-24T04:37:23;101080.59;;;29.45;43.55
71559;BME280;59382;43.852;25.952;2023-08-24T04:39:48;101078.66;;;29.37;43.53
71559;BME280;59382;43.852;25.952;2023-08-24T04:42:14;101074.88;;;29.33;43.61
71559;BME280;59382;43.852;25.952;2023-08-24T04:44:39;101078.47;;;29.33;43.86
71559;BME280;59382;43.852;25.952;2023-08-24T04:47:05;101085.50;;;29.31;43.68
71559;BME280;59382;43.852;25.952;2023-08-24T04:49:30;101088.44;;;29.26;43.63
71559;BME280;59382;43.852;25.952;2023-08-24T04:51:56;101095.47;;;29.23;44.05
71559;BME280;59382;43.852;25.952;2023-08-24T04:54:22;101070.94;;;29.08;44.08
71559;BME280;59382;43.852;25.952;2023-08-24T04:56:47;101086.13;;;29.11;43.97
71559;BME280;59382;43.852;25.952;2023-08-24T04:59:13;101090.72;;;29.07;44.20
71559;BME280;59382;43.852;25.952;2023-08-24T05:01:38;101080.44;;;29.07;44.36
71559;BME280;59382;43.852;25.952;2023-08-24T05:04:04;101084.16;;;29.03;44.33
71559;BME280;59382;43.852;25.952;2023-08-24T05:06:29;101092.34;;;29.08;44.20
71559;BME280;59382;43.852;25.952;2023-08-24T05:08:55;101084.50;;;29.10;44.51
71559;BME280;59382;43.852;25.952;2023-08-24T05:11:23;101057.03;;;28.91;44.77
71559;BME280;59382;43.852;25.952;2023-08-24T05:13:49;101085.66;;;29.17;44.36
71559;BME280;59382;43.852;25.952;2023-08-24T05:16:16;101086.00;;;29.24;44.33
71559;BME280;59382;43.852;25.952;2023-08-24T05:18:41;101079.31;;;29.25;44.23
71559;BME280;59382;43.852;25.952;2023-08-24T05:21:07;101091.56;;;29.41;43.81
71559;BME280;59382;43.852;25.952;2023-08-24T05:23:34;101085.03;;;29.46;43.85
71559;BME280;59382;43.852;25.952;2023-08-24T05:26:00;101095.00;;;29.64;43.82
71559;BME280;59382;43.852;25.952;2023-08-24T05:28:27;101088.94;;;29.70;43.99
71559;BME280;59382;43.852;25.952;2023-08-24T05:30:53;101095.63;;;29.86;43.59
71559;BME280;59382;43.852;25.952;2023-08-24T05:33:20;101102.50;;;29.89;43.85
71559;BME280;59382;43.852;25.952;2023-08-24T05:35:47;101093.00;;;29.90;43.60
71559;BME280;59382;43.852;25.952;2023-08-24T05:38:13;101104.44;;;29.97;43.87
71559;BME280;59382;43.852;25.952;2023-08-24T05:40:39;101097.72;;;29.98;43.88
71559;BME280;59382;43.852;25.952;2023-08-24T05:43:05;101103.75;;;30.00;44.35
71559;BME280;59382;43.852;25.952;2023-08-24T05:45:30;101108.16;;;30.09;44.38
71559;BME280;59382;43.852;25.952;2023-08-24T05:47:55;101107.19;;;30.14;44.04
71559;BME280;59382;43.852;25.952;2023-08-24T05:50:21;101103.09;;;30.20;43.86
71559;BME280;59382;43.852;25.952;2023-08-24T05:52:47;101106.38;;;30.22;44.42
71559;BME280;59382;43.852;25.952;2023-08-24T05:55:12;101113.56;;;30.23;44.04
71559;BME280;59382;43.852;25.952;2023-08-24T05:57:38;101104.25;;;30.19;44.12
71559;BME280;59382;43.852;25.952;2023-08-24T06:00:04;101107.34;;;30.26;43.83
71559;BME280;59382;43.852;25.952;2023-08-24T06:02:35;101108.41;;;30.42;43.53
71559;BME280;59382;43.852;25.952;2023-08-24T06:05:01;101115.34;;;30.65;43.53
71559;BME280;59382;43.852;25.952;2023-08-24T06:07:28;101098.16;;;30.63;43.43
71559;BME280;59382;43.852;25.952;2023-08-24T06:09:54;101100.94;;;30.63;43.25
71559;BME280;59382;43.852;25.952;2023-08-24T06:12:19;101099.00;;;30.55;42.79
71559;BME280;59382;43.852;25.952;2023-08-24T06:14:45;101105.75;;;30.54;43.23
71559;BME280;59382;43.852;25.952;2023-08-24T06:17:10;101116.69;;;30.59;43.40
71559;BME280;59382;43.852;25.952;2023-08-24T06:19:36;101120.19;;;30.85;43.33
71559;BME280;59382;43.852;25.952;2023-08-24T06:22:01;101111.13;;;31.17;42.54
71559;BME280;59382;43.852;25.952;2023-08-24T06:24:26;101124.66;;;31.68;42.19
71559;BME280;59382;43.852;25.952;2023-08-24T06:26:52;101109.66;;;31.93;42.01
71559;BME280;59382;43.852;25.952;2023-08-24T06:29:17;101121.53;;;32.35;41.47
71559;BME280;59382;43.852;25.952;2023-08-24T06:31:43;101114.94;;;32.64;41.00
71559;BME280;59382;43.852;25.952;2023-08-24T06:34:08;101120.38;;;32.84;40.61
71559;BME280;59382;43.852;25.952;2023-08-24T06:36:34;101108.41;;;32.84;39.88
71559;BME280;59382;43.852;25.952;2023-08-24T06:38:59;101117.53;;;32.93;40.22
71559;BME280;59382;43.852;25.952;2023-08-24T06:41:25;101107.13;;;32.81;40.12
71559;BME280;59382;43.852;25.952;2023-08-24T06:43:50;101117.94;;;32.83;40.05
71559;BME280;59382;43.852;25.952;2023-08-24T06:46:16;101122.03;;;32.85;40.01
71559;BME280;59382;43.852;25.952;2023-08-24T06:48:42;101112.63;;;32.90;39.81
71559;BME280;59382;43.852;25.952;2023-08-24T06:51:09;101120.06;;;32.98;39.64
71559;BME280;59382;43.852;25.952;2023-08-24T06:53:35;101132.91;;;32.99;39.80
71559;BME280;59382;43.852;25.952;2023-08-24T06:56:01;101119.59;;;32.84;39.90
71559;BME280;59382;43.852;25.952;2023-08-24T06:58:28;101111.91;;;32.69;39.96
71559;BME280;59382;43.852;25.952;2023-08-24T07:00:53;101131.72;;;32.88;39.81
71559;BME280;59382;43.852;25.952;2023-08-24T07:03:21;101121.47;;;32.92;39.89
71559;BME280;59382;43.852;25.952;2023-08-24T07:05:46;101135.44;;;33.04;39.45
71559;BME280;59382;43.852;25.952;2023-08-24T07:08:13;101139.13;;;33.20;39.11
71559;BME280;59382;43.852;25.952;2023-08-24T07:10:39;101123.28;;;33.24;38.94
71559;BME280;59382;43.852;25.952;2023-08-24T07:13:06;101125.13;;;33.32;39.09
71559;BME280;59382;43.852;25.952;2023-08-24T07:15:33;101132.34;;;33.33;38.58
71559;BME280;59382;43.852;25.952;2023-08-24T07:18:02;101103.53;;;33.05;38.66
71559;BME280;59382;43.852;25.952;2023-08-24T07:20:28;101131.41;;;33.29;38.35
71559;BME280;59382;43.852;25.952;2023-08-24T07:22:57;101118.09;;;33.50;38.00
71559;BME280;59382;43.852;25.952;2023-08-24T07:25:22;101137.81;;;33.81;37.41
71559;BME280;59382;43.852;25.952;2023-08-24T07:27:48;101128.41;;;34.01;36.95
71559;BME280;59382;43.852;25.952;2023-08-24T07:30:14;101124.97;;;34.08;36.97
71559;BME280;59382;43.852;25.952;2023-08-24T07:32:39;101128.16;;;34.06;36.73
71559;BME280;59382;43.852;25.952;2023-08-24T07:35:06;101122.34;;;33.99;37.03
71559;BME280;59382;43.852;25.952;2023-08-24T07:37:32;101119.19;;;34.01;36.64
71559;BME280;59382;43.852;25.952;2023-08-24T07:39:57;101117.94;;;33.98;36.59
71559;BME280;59382;43.852;25.952;2023-08-24T07:42:23;101114.22;;;33.94;36.61
71559;BME280;59382;43.852;25.952;2023-08-24T07:44:49;101122.34;;;33.99;36.59
71559;BME280;59382;43.852;25.952;2023-08-24T07:47:15;101115.28;;;33.89;36.33
71559;BME280;59382;43.852;25.952;2023-08-24T07:49:41;101117.97;;;33.86;36.63
71559;BME280;59382;43.852;25.952;2023-08-24T07:52:12;101118.47;;;33.76;36.70
71559;BME280;59382;43.852;25.952;2023-08-24T07:54:38;101118.25;;;33.69;36.63
71559;BME280;59382;43.852;25.952;2023-08-24T07:57:05;101101.19;;;33.58;36.59
71559;BME280;59382;43.852;25.952;2023-08-24T07:59:31;101109.81;;;33.81;36.57
71559;BME280;59382;43.852;25.952;2023-08-24T08:01:56;101113.88;;;34.11;36.33
71559;BME280;59382;43.852;25.952;2023-08-24T08:04:22;101107.38;;;34.23;35.75
71559;BME280;59382;43.852;25.952;2023-08-24T08:06:47;101102.41;;;34.32;35.54
71559;BME280;59382;43.852;25.952;2023-08-24T08:09:13;101125.22;;;34.46;35.52
71559;BME280;59382;43.852;25.952;2023-08-24T08:11:38;101108.06;;;34.47;35.71
71559;BME280;59382;43.852;25.952;2023-08-24T08:14:04;101114.19;;;34.68;35.16
71559;BME280;59382;43.852;25.952;2023-08-24T08:16:30;101109.88;;;34.86;35.23
71559;BME280;59382;43.852;25.952;2023-08-24T08:18:56;101111.78;;;35.01;35.08
71559;BME280;59382;43.852;25.952;2023-08-24T08:21:21;101103.56;;;35.08;34.86
71559;BME280;59382;43.852;25.952;2023-08-24T08:23:49;101105.09;;;35.06;34.81
71559;BME280;59382;43.852;25.952;2023-08-24T08:26:15;101097.25;;;34.96;35.38
71559;BME280;59382;43.852;25.952;2023-08-24T08:28:41;101104.69;;;34.88;35.18
71559;BME280;59382;43.852;25.952;2023-08-24T08:31:07;101102.69;;;34.73;35.49
71559;BME280;59382;43.852;25.952;2023-08-24T08:33:34;101091.88;;;34.56;35.72
71559;BME280;59382;43.852;25.952;2023-08-24T08:36:01;101099.66;;;34.47;35.64
71559;BME280;59382;43.852;25.952;2023-08-24T08:38:27;101098.28;;;34.41;35.63
71559;BME280;59382;43.852;25.952;2023-08-24T08:40:54;101090.31;;;34.28;36.21
71559;BME280;59382;43.852;25.952;2023-08-24T08:43:22;101096.16;;;34.23;35.83
71559;BME280;59382;43.852;25.952;2023-08-24T08:45:51;101090.41;;;34.31;35.95
71559;BME280;59382;43.852;25.952;2023-08-24T08:48:20;101098.94;;;34.50;35.71
71559;BME280;59382;43.852;25.952;2023-08-24T08:50:48;101088.03;;;34.64;35.59
71559;BME280;59382;43.852;25.952;2023-08-24T08:53:14;101085.13;;;34.76;35.58
71559;BME280;59382;43.852;25.952;2023-08-24T08:55:41;101087.94;;;34.76;35.45
71559;BME280;59382;43.852;25.952;2023-08-24T08:58:07;101093.28;;;34.81;35.54
71559;BME280;59382;43.852;25.952;2023-08-24T09:00:34;101087.75;;;34.85;35.44
71559;BME280;59382;43.852;25.952;2023-08-24T09:03:01;101088.78;;;34.92;35.40
71559;BME280;59382;43.852;25.952;2023-08-24T09:05:28;101076.63;;;34.88;35.27
71559;BME280;59382;43.852;25.952;2023-08-24T09:07:54;101079.16;;;34.93;35.08
71559;BME280;59382;43.852;25.952;2023-08-24T09:10:22;101081.53;;;34.91;35.05
71559;BME280;59382;43.852;25.952;2023-08-24T09:12:47;101079.16;;;34.93;35.36
71559;BME280;59382;43.852;25.952;2023-08-24T09:15:13;101064.28;;;34.89;35.35
71559;BME280;59382;43.852;25.952;2023-08-24T09:17:43;101061.91;;;35.10;34.80
71559;BME280;59382;43.852;25.952;2023-08-24T09:20:09;101074.34;;;35.28;34.50
71559;BME280;59382;43.852;25.952;2023-08-24T09:22:38;101071.28;;;35.33;34.48
71559;BME280;59382;43.852;25.952;2023-08-24T09:25:08;101077.47;;;35.42;34.14
71559;BME280;59382;43.852;25.952;2023-08-24T09:27:34;101072.97;;;35.38;34.61
71559;BME280;59382;43.852;25.952;2023-08-24T09:30:00;101057.06;;;35.26;34.08
71559;BME280;59382;43.852;25.952;2023-08-24T09:32:29;101059.44;;;35.24;34.30
71559;BME280;59382;43.852;25.952;2023-08-24T09:34:56;101059.16;;;35.29;34.10
71559;BME280;59382;43.852;25.952;2023-08-24T09:37:21;101066.63;;;35.41;34.07
71559;BME280;59382;43.852;25.952;2023-08-24T09:39:47;101052.34;;;35.49;33.93
71559;BME280;59382;43.852;25.952;2023-08-24T09:42:13;101066.69;;;35.63;33.89
71559;BME280;59382;43.852;25.952;2023-08-24T09:44:48;101049.03;;;35.63;33.40
71559;BME280;59382;43.852;25.952;2023-08-24T09:47:14;101060.75;;;35.68;33.44
71559;BME280;59382;43.852;25.952;2023-08-24T09:49:41;101062.69;;;35.64;33.13
71559;BME280;59382;43.852;25.952;2023-08-24T09:52:07;101051.69;;;35.56;33.07
71559;BME280;59382;43.852;25.952;2023-08-24T09:54:36;101057.81;;;35.61;32.82
71559;BME280;59382;43.852;25.952;2023-08-24T09:57:03;101044.66;;;35.65;33.07
71559;BME280;59382;43.852;25.952;2023-08-24T09:59:32;101051.28;;;35.77;32.98
71559;BME280;59382;43.852;25.952;2023-08-24T10:02:00;101051.03;;;35.82;32.63
71559;BME280;59382;43.852;25.952;2023-08-24T10:04:29;101037.69;;;35.79;32.61
71559;BME280;59382;43.852;25.952;2023-08-24T10:07:03;101039.31;;;35.80;32.68
71559;BME280;59382;43.852;25.952;2023-08-24T10:10:07;101035.34;;;35.81;32.26
71559;BME280;59382;43.852;25.952;2023-08-24T10:12:28;101028.09;;;35.80;32.39
71559;BME280;59382;43.852;25.952;2023-08-24T10:15:01;101011.22;;;35.80;32.32
71559;BME280;59382;43.852;25.952;2023-08-24T10:17:33;101021.00;;;35.86;32.03
71559;BME280;59382;43.852;25.952;2023-08-24T10:20:01;101004.09;;;35.82;31.86
71559;BME280;59382;43.852;25.952;2023-08-24T10:22:31;101019.97;;;35.94;31.92
71559;BME280;59382;43.852;25.952;2023-08-24T10:24:57;101015.13;;;35.94;32.02
71559;BME280;59382;43.852;25.952;2023-08-24T10:27:23;101015.38;;;35.86;31.96
71559;BME280;59382;43.852;25.952;2023-08-24T10:29:49;101019.97;;;35.94;31.48
71559;BME280;59382;43.852;25.952;2023-08-24T10:32:15;101014.28;;;35.90;31.49
71559;BME280;59382;43.852;25.952;2023-08-24T10:34:41;101008.28;;;35.92;31.91
71559;BME280;59382;43.852;25.952;2023-08-24T10:37:10;100996.19;;;35.88;31.59
71559;BME280;59382;43.852;25.952;2023-08-24T10:39:37;100992.91;;;35.86;31.50
71559;BME280;59382;43.852;25.952;2023-08-24T10:42:10;100992.19;;;35.89;31.67
71559;BME280;59382;43.852;25.952;2023-08-24T10:44:39;100988.06;;;35.83;31.88
71559;BME280;59382;43.852;25.952;2023-08-24T10:47:18;100977.69;;;35.87;32.00
71559;BME280;59382;43.852;25.952;2023-08-24T10:52:36;100985.97;;;35.80;31.67
71559;BME280;59382;43.852;25.952;2023-08-24T10:55:04;100974.38;;;35.81;31.47
71559;BME280;59382;43.852;25.952;2023-08-24T10:57:39;100975.56;;;35.80;31.23
71559;BME280;59382;43.852;25.952;2023-08-24T11:00:10;100972.66;;;35.77;31.00
71559;BME280;59382;43.852;25.952;2023-08-24T11:02:49;100971.34;;;35.70;31.32
71559;BME280;59382;43.852;25.952;2023-08-24T11:05:25;100967.81;;;35.73;31.52
71559;BME280;59382;43.852;25.952;2023-08-24T11:07:53;100965.06;;;35.77;31.06
71559;BME280;59382;43.852;25.952;2023-08-24T11:10:20;100961.44;;;35.77;31.15
71559;BME280;59382;43.852;25.952;2023-08-24T11:13:09;100958.63;;;35.77;30.85
71559;BME280;59382;43.852;25.952;2023-08-24T11:15:44;100940.91;;;35.72;30.58
71559;BME280;59382;43.852;25.952;2023-08-24T11:18:21;100934.78;;;35.67;30.85
71559;BME280;59382;43.852;25.952;2023-08-24T11:20:50;100941.22;;;35.67;30.88
71559;BME280;59382;43.852;25.952;2023-08-24T11:23:16;100921.09;;;35.62;30.98
71559;BME280;59382;43.852;25.952;2023-08-24T11:25:43;100910.63;;;35.62;30.88
71559;BME280;59382;43.852;25.952;2023-08-24T11:28:08;100908.22;;;35.61;30.65
71559;BME280;59382;43.852;25.952;2023-08-24T11:30:34;100892.50;;;35.56;30.63
71559;BME280;59382;43.852;25.952;2023-08-24T11:33:01;100904.97;;;35.59;30.93
71559;BME280;59382;43.852;25.952;2023-08-24T11:35:28;100890.44;;;35.53;30.75
71559;BME280;59382;43.852;25.952;2023-08-24T11:37:54;100887.63;;;35.53;30.86
71559;BME280;59382;43.852;25.952;2023-08-24T11:40:20;100867.84;;;35.46;30.56
71559;BME280;59382;43.852;25.952;2023-08-24T11:42:53;100849.22;;;35.35;31.01
71559;BME280;59382;43.852;25.952;2023-08-24T11:45:20;100865.50;;;35.48;30.90
71559;BME280;59382;43.852;25.952;2023-08-24T11:47:47;100857.38;;;35.43;30.77
71559;BME280;59382;43.852;25.952;2023-08-24T11:50:13;100863.06;;;35.47;30.92
71559;BME280;59382;43.852;25.952;2023-08-24T11:52:42;100856.63;;;35.46;31.17
71559;BME280;59382;43.852;25.952;2023-08-24T11:55:08;100859.03;;;35.44;30.98
71559;BME280;59382;43.852;25.952;2023-08-24T11:57:35;100850.91;;;35.39;31.21
71559;BME280;59382;43.852;25.952;2023-08-24T12:00:02;100849.31;;;35.38;31.17
71559;BME280;59382;43.852;25.952;2023-08-24T12:02:28;100849.31;;;35.38;31.27
71559;BME280;59382;43.852;25.952;2023-08-24T12:04:54;100838.38;;;35.33;31.23
71559;BME280;59382;43.852;25.952;2023-08-24T12:07:20;100844.47;;;35.39;31.15
71559;BME280;59382;43.852;25.952;2023-08-24T12:09:46;100837.63;;;35.36;31.40
71559;BME280;59382;43.852;25.952;2023-08-24T12:12:15;100841.19;;;35.33;31.43
71559;BME280;59382;43.852;25.952;2023-08-24T12:14:42;100836.44;;;35.37;31.19
71559;BME280;59382;43.852;25.952;2023-08-24T12:17:09;100830.81;;;35.37;31.50
71559;BME280;59382;43.852;25.952;2023-08-24T12:19:34;100835.56;;;35.33;31.51
71559;BME280;59382;43.852;25.952;2023-08-24T12:22:00;100828.31;;;35.32;31.74
71559;BME280;59382;43.852;25.952;2023-08-24T12:24:25;100844.44;;;35.35;31.52
71559;BME280;59382;43.852;25.952;2023-08-24T12:26:57;100839.53;;;35.32;31.68
71559;BME280;59382;43.852;25.952;2023-08-24T12:29:23;100837.47;;;35.29;31.40
71559;BME280;59382;43.852;25.952;2023-08-24T12:31:49;100844.25;;;35.28;31.66
71559;BME280;59382;43.852;25.952;2023-08-24T12:34:15;100830.56;;;35.23;31.80
71559;BME280;59382;43.852;25.952;2023-08-24T12:36:41;100837.03;;;35.27;31.96
71559;BME280;59382;43.852;25.952;2023-08-24T12:39:11;100841.03;;;35.26;31.84
71559;BME280;59382;43.852;25.952;2023-08-24T12:41:38;100831.78;;;35.26;31.97
71559;BME280;59382;43.852;25.952;2023-08-24T12:44:04;100819.63;;;35.18;31.94
71559;BME280;59382;43.852;25.952;2023-08-24T12:46:37;100822.56;;;35.25;31.97
71559;BME280;59382;43.852;25.952;2023-08-24T12:49:05;100808.72;;;35.13;31.87